createdAt,value
2018-04-28T00:01:51.593Z,11.12
2018-04-28T00:04:18.148Z,10.98
2018-04-28T00:06:44.669Z,11.63
2018-04-28T00:09:11.245Z,12.15
2018-04-28T00:11:39.325Z,13.10
2018-04-28T00:14:05.842Z,14.27
2018-04-28T00:16:48.160Z,11.85
2018-04-28T00:19:16.570Z,11.40
2018-04-28T00:21:47.672Z,12.00
2018-04-28T00:24:15.158Z,14.73
2018-04-28T00:26:41.699Z,12.85
2018-04-28T00:29:12.170Z,11.70
2018-04-28T00:31:51.462Z,14.38
2018-04-28T00:34:18.044Z,11.80
2018-04-28T00:50:39.245Z,12.15
2018-04-28T00:53:05.784Z,12.48
2018-04-28T00:55:38.159Z,11.17
2018-04-28T00:58:18.600Z,11.68
2018-04-28T01:00:46.049Z,13.32
2018-04-28T01:03:12.631Z,14.05
2018-04-28T01:05:47.920Z,12.15
2018-04-28T01:08:15.282Z,12.43
2018-04-28T01:10:42.666Z,13.88
2018-04-28T01:13:09.225Z,11.60
2018-04-28T01:15:36.832Z,18.85
2018-04-28T01:31:27.289Z,11.57
2018-04-28T01:33:57.530Z,14.70
2018-04-28T01:36:34.785Z,16.70
2018-04-28T01:39:27.890Z,19.95
2018-04-28T01:42:00.152Z,12.63
2018-04-28T01:44:47.681Z,13.27
2018-04-28T01:47:23.214Z,13.18
2018-04-28T01:49:57.532Z,15.60
2018-04-28T01:52:44.909Z,13.35
2018-04-28T02:08:34.115Z,16.65
2018-04-28T02:11:00.638Z,15.05
2018-04-28T02:13:54.753Z,19.27
2018-04-28T02:16:35.994Z,19.95
2018-04-28T02:19:13.246Z,14.55
2018-04-28T02:21:51.858Z,18.62
2018-04-28T02:38:04.075Z,14.02
2018-04-28T02:40:30.613Z,15.40
2018-04-28T02:42:58.941Z,16.55
2018-04-28T02:45:40.334Z,17.55
2018-04-28T03:01:46.840Z,16.05
2018-04-28T03:04:22.854Z,16.48
2018-04-28T03:06:53.193Z,16.12
2018-04-28T03:09:21.433Z,16.60
2018-04-28T03:11:59.999Z,16.12
2018-04-28T03:14:26.540Z,17.02
2018-04-28T03:16:59.034Z,17.30
2018-04-28T03:19:29.907Z,17.62
2018-04-28T03:21:56.465Z,14.60
2018-04-28T03:37:55.906Z,17.80
2018-04-28T03:40:22.451Z,13.83
2018-04-28T03:42:57.816Z,15.02
2018-04-28T03:45:31.121Z,17.50
2018-04-28T03:48:22.019Z,13.77
2018-04-28T03:50:50.572Z,15.57
2018-04-28T03:53:23.195Z,13.65
2018-04-28T03:56:00.569Z,14.70
2018-04-28T03:58:39.233Z,15.23
2018-04-28T04:01:18.641Z,15.95
2018-04-28T04:03:57.365Z,13.90
2018-04-28T04:20:13.684Z,13.20
2018-04-28T04:36:10.917Z,14.23
2018-04-28T04:38:44.894Z,10.95
2018-04-28T04:41:21.122Z,12.05
2018-04-28T04:47:05.454Z,15.15
2018-04-28T05:03:30.758Z,15.80
2018-04-28T05:06:04.985Z,14.40
2018-04-28T05:22:19.588Z,12.07
2018-04-28T05:27:46.275Z,10.50
2018-04-28T05:30:47.574Z,11.90
2018-04-28T05:33:26.292Z,11.20
2018-04-28T05:36:08.549Z,12.07
2018-04-28T05:38:55.964Z,10.77
2018-04-28T05:41:35.194Z,11.20
2018-04-28T05:44:21.129Z,11.10
2018-04-28T05:46:52.762Z,11.50
2018-04-28T05:49:27.161Z,10.00
2018-04-28T05:51:57.167Z,11.30
2018-04-28T06:08:37.670Z,13.43
2018-04-28T06:11:17.063Z,11.47
2018-04-28T06:13:55.852Z,10.10
2018-04-28T06:16:34.616Z,9.83
2018-04-28T06:19:10.235Z,9.40
2018-04-28T06:21:37.509Z,9.80
2018-04-28T06:24:04.032Z,9.13
2018-04-28T06:26:30.584Z,13.57
2018-04-28T06:28:57.189Z,11.47
2018-04-28T06:31:24.561Z,9.67
2018-04-28T06:33:51.137Z,8.87
2018-04-28T06:36:17.683Z,10.10
2018-04-28T06:38:44.284Z,9.77
2018-04-28T06:41:11.602Z,9.43
2018-04-28T06:43:38.092Z,8.60
2018-04-28T06:46:04.669Z,9.73
2018-04-28T06:48:31.228Z,8.40
2018-04-28T06:50:57.724Z,8.27
2018-04-28T06:53:24.285Z,8.07
2018-04-28T06:55:51.980Z,9.00
2018-04-28T06:58:18.563Z,7.90
2018-04-28T07:00:45.065Z,8.40
2018-04-28T07:03:11.639Z,8.60
2018-04-28T07:05:38.230Z,8.70
2018-04-28T07:08:04.995Z,8.37
2018-04-28T07:10:32.323Z,8.47
2018-04-28T07:12:59.589Z,7.03
2018-04-28T07:15:26.137Z,6.67
2018-04-28T07:17:52.702Z,9.33
2018-04-28T07:20:20.007Z,9.20
2018-04-28T07:22:46.565Z,7.20
2018-04-28T07:25:13.115Z,8.70
2018-04-28T07:27:40.783Z,9.53
2018-04-28T07:30:07.336Z,7.17
2018-04-28T07:32:34.671Z,7.80
2018-04-28T07:35:01.232Z,8.53
2018-04-28T07:37:28.612Z,12.63
2018-04-28T07:39:55.206Z,7.83
2018-04-28T07:42:21.836Z,8.73
2018-04-28T07:44:49.236Z,9.07
2018-04-28T07:47:16.500Z,7.77
2018-04-28T07:49:43.797Z,8.70
2018-04-28T07:52:10.305Z,8.50
2018-04-28T07:54:37.569Z,9.13
2018-04-28T07:57:04.052Z,8.17
2018-04-28T07:59:30.559Z,8.60
2018-04-28T08:01:57.062Z,8.40
2018-04-28T08:04:24.346Z,8.90
2018-04-28T08:06:50.916Z,8.70
2018-04-28T08:09:17.457Z,8.60
2018-04-28T08:11:44.762Z,9.37
2018-04-28T08:14:11.301Z,8.53
2018-04-28T08:16:38.696Z,8.33
2018-04-28T08:19:05.383Z,8.23
2018-04-28T08:21:31.949Z,8.73
2018-04-28T08:23:59.175Z,8.90
2018-04-28T08:26:25.779Z,6.97
2018-04-28T08:28:52.351Z,11.53
2018-04-28T08:31:19.745Z,7.60
2018-04-28T08:33:47.246Z,7.97
2018-04-28T08:36:13.840Z,8.03
2018-04-28T08:38:41.143Z,8.07
2018-04-28T08:41:07.733Z,7.70
2018-04-28T08:43:35.458Z,7.10
2018-04-28T08:46:02.851Z,6.80
2018-04-28T08:48:29.357Z,11.13
2018-04-28T08:50:55.835Z,7.87
2018-04-28T08:53:23.789Z,7.60
2018-04-28T08:55:50.319Z,7.90
2018-04-28T08:58:16.775Z,7.40
2018-04-28T09:01:02.967Z,7.60
2018-04-28T09:03:29.433Z,9.63
2018-04-28T09:05:57.144Z,7.67
2018-04-28T09:08:23.549Z,9.50
2018-04-28T09:10:50.753Z,10.53
2018-04-28T09:13:17.227Z,9.77
2018-04-28T09:15:44.974Z,7.60
2018-04-28T09:18:11.486Z,8.00
2018-04-28T09:20:37.989Z,8.60
2018-04-28T09:23:04.477Z,8.27
2018-04-28T09:25:30.951Z,9.90
2018-04-28T09:27:58.162Z,8.00
2018-04-28T09:30:24.687Z,9.30
2018-04-28T09:32:51.159Z,9.30
2018-04-28T09:35:17.630Z,7.07
2018-04-28T09:37:44.960Z,8.13
2018-04-28T09:40:11.437Z,8.03
2018-04-28T09:42:37.903Z,7.43
2018-04-28T09:45:04.437Z,8.03
2018-04-28T09:47:30.931Z,9.30
2018-04-28T09:49:58.156Z,7.60
2018-04-28T09:52:24.668Z,10.10
2018-04-28T09:54:51.138Z,9.80
2018-04-28T09:57:17.620Z,8.47
2018-04-28T09:59:44.117Z,8.30
2018-04-28T10:02:16.814Z,8.40
2018-04-28T10:04:43.307Z,7.77
2018-04-28T10:07:09.792Z,9.90
2018-04-28T10:09:36.291Z,7.33
2018-04-28T10:12:02.954Z,7.63
2018-04-28T10:14:30.209Z,8.23
2018-04-28T10:16:56.712Z,7.20
2018-04-28T10:19:23.205Z,7.27
2018-04-28T10:21:49.722Z,9.47
2018-04-28T10:24:16.280Z,10.33
2018-04-28T10:26:42.808Z,8.93
2018-04-28T10:29:09.427Z,7.60
2018-04-28T10:31:35.986Z,9.83
2018-04-28T10:34:02.459Z,9.73
2018-04-28T10:36:29.686Z,9.00
2018-04-28T10:38:56.180Z,7.97
2018-04-28T10:41:22.692Z,7.07
2018-04-28T10:43:49.926Z,11.27
2018-04-28T10:46:16.415Z,6.63
2018-04-28T10:48:42.898Z,7.53
2018-04-28T10:51:09.334Z,7.53
2018-04-28T10:53:35.841Z,8.63
2018-04-28T10:56:02.323Z,12.00
2018-04-28T10:58:28.802Z,8.43
2018-04-28T11:00:55.299Z,8.03
2018-04-28T11:03:21.776Z,10.20
2018-04-28T11:05:48.259Z,7.70
2018-04-28T11:08:14.793Z,6.33
2018-04-28T11:10:41.285Z,6.77
2018-04-28T11:13:07.738Z,5.40
2018-04-28T11:15:34.208Z,6.77
2018-04-28T11:18:00.711Z,6.53
2018-04-28T11:20:27.204Z,6.00
2018-04-28T11:22:53.676Z,5.37
2018-04-28T11:25:20.115Z,8.53
2018-04-28T11:27:46.565Z,11.47
2018-04-28T11:30:13.044Z,9.30
2018-04-28T11:32:39.504Z,8.47
2018-04-28T11:35:06.764Z,7.20
2018-04-28T11:37:33.992Z,7.50
2018-04-28T11:40:00.471Z,8.63
2018-04-28T11:42:27.697Z,5.63
2018-04-28T11:44:54.170Z,6.33
2018-04-28T11:47:20.643Z,6.77
2018-04-28T11:49:47.125Z,6.43
2018-04-28T11:52:14.333Z,8.73
2018-04-28T11:54:40.815Z,6.20
2018-04-28T11:57:08.054Z,6.23
2018-04-28T11:59:34.530Z,5.73
2018-04-28T12:02:01.019Z,5.80
2018-04-28T12:04:27.515Z,10.13
2018-04-28T12:06:53.980Z,6.37
2018-04-28T12:09:20.469Z,8.17
2018-04-28T12:11:47.714Z,8.57
2018-04-28T12:14:14.210Z,5.33
2018-04-28T12:16:40.681Z,7.67
2018-04-28T12:19:07.189Z,9.23
2018-04-28T12:21:33.712Z,9.90
2018-04-28T12:24:00.208Z,6.10
2018-04-28T12:26:27.465Z,8.90
2018-04-28T12:28:54.764Z,7.20
2018-04-28T12:31:21.268Z,5.80
2018-04-28T12:33:48.484Z,7.83
2018-04-28T12:36:14.969Z,6.07
2018-04-28T12:38:42.209Z,6.13
2018-04-28T12:41:08.765Z,7.03
2018-04-28T12:43:35.975Z,7.57
2018-04-28T12:46:02.518Z,6.97
2018-04-28T12:48:29.020Z,7.33
2018-04-28T12:50:55.574Z,7.27
2018-04-28T12:53:22.065Z,8.77
2018-04-28T12:55:49.340Z,7.23
2018-04-28T12:58:16.656Z,10.00
2018-04-28T13:00:43.145Z,6.87
2018-04-28T13:03:09.667Z,9.33
2018-04-28T13:05:36.222Z,8.97
2018-04-28T13:08:02.717Z,7.87
2018-04-28T13:10:29.241Z,5.40
2018-04-28T13:12:55.721Z,8.27
2018-04-28T13:15:22.957Z,8.17
2018-04-28T13:17:49.554Z,7.33
2018-04-28T13:20:16.096Z,8.33
2018-04-28T13:22:42.635Z,6.30
2018-04-28T13:25:09.140Z,7.00
2018-04-28T13:27:36.381Z,8.30
2018-04-28T13:30:02.982Z,10.13
2018-04-28T13:32:29.457Z,6.93
2018-04-28T13:34:56.018Z,8.70
2018-04-28T13:37:23.269Z,9.33
2018-04-28T13:39:50.528Z,6.10
2018-04-28T13:42:17.782Z,9.90
2018-04-28T13:44:44.319Z,7.03
2018-04-28T13:47:11.552Z,8.17
2018-04-28T13:49:38.068Z,7.43
2018-04-28T13:52:04.531Z,9.60
2018-04-28T13:54:31.004Z,9.77
2018-04-28T13:56:57.506Z,7.07
2018-04-28T13:59:23.995Z,8.10
2018-04-28T14:01:50.496Z,9.57
2018-04-28T14:04:17.730Z,9.60
2018-04-28T14:06:44.253Z,13.83
2018-04-28T14:09:10.789Z,6.27
2018-04-28T14:11:37.380Z,11.00
2018-04-28T14:14:04.677Z,10.33
2018-04-28T14:16:31.152Z,7.57
2018-04-28T14:18:57.644Z,8.70
2018-04-28T14:21:24.133Z,8.37
2018-04-28T14:23:50.663Z,7.93
2018-04-28T14:26:17.166Z,5.20
2018-04-28T14:28:43.698Z,6.80
2018-04-28T14:31:10.194Z,10.17
2018-04-28T14:33:36.645Z,6.80
2018-04-28T14:36:03.893Z,9.63
2018-04-28T14:38:31.118Z,7.33
2018-04-28T14:40:57.612Z,10.03
2018-04-28T14:43:24.082Z,8.87
2018-04-28T14:45:50.569Z,7.60
2018-04-28T14:48:17.812Z,17.27
2018-04-28T14:50:44.314Z,8.57
2018-04-28T14:53:10.837Z,11.07
2018-04-28T14:55:37.335Z,9.63
2018-04-28T14:58:04.543Z,6.27
2018-04-28T15:00:31.079Z,9.27
2018-04-28T15:02:57.557Z,7.40
2018-04-28T15:05:24.073Z,6.70
2018-04-28T15:07:50.588Z,8.40
2018-04-28T15:10:17.092Z,9.13
2018-04-28T15:12:44.376Z,9.20
2018-04-28T15:15:10.870Z,8.73
2018-04-28T15:17:37.317Z,9.80
2018-04-28T15:20:03.863Z,11.83
2018-04-28T15:22:31.104Z,8.00
2018-04-28T15:24:57.567Z,15.20
2018-04-28T15:27:24.760Z,13.07
2018-04-28T15:29:51.277Z,14.10
2018-04-28T15:32:17.722Z,7.17
2018-04-28T15:34:44.173Z,7.50
2018-04-28T15:37:10.661Z,11.80
2018-04-28T15:39:37.890Z,14.43
2018-04-28T15:42:04.429Z,7.37
2018-04-28T15:44:30.935Z,10.57
2018-04-28T15:46:57.490Z,9.77
2018-04-28T15:49:24.010Z,9.30
2018-04-28T15:51:50.499Z,8.57
2018-04-28T15:54:16.992Z,11.63
2018-04-28T15:56:43.467Z,11.03
2018-04-28T15:59:09.977Z,10.50
2018-04-28T16:01:36.462Z,11.30
2018-04-28T16:04:03.714Z,13.50
2018-04-28T16:06:30.213Z,11.67
2018-04-28T16:08:57.330Z,12.70
2018-04-28T16:11:24.595Z,13.17
2018-04-28T16:13:51.143Z,14.23
2018-04-28T16:16:17.625Z,11.17
2018-04-28T16:18:45.036Z,8.33
2018-04-28T16:21:11.570Z,8.87
2018-04-28T16:23:38.021Z,12.73
2018-04-28T16:26:04.499Z,7.00
2018-04-28T16:28:31.037Z,9.07
2018-04-28T16:30:57.505Z,22.13
2018-04-28T16:33:24.717Z,10.07
2018-04-28T16:35:51.251Z,8.20
2018-04-28T16:38:17.762Z,13.17
2018-04-28T16:40:44.230Z,13.40
2018-04-28T16:43:10.810Z,8.87
2018-04-28T16:45:38.033Z,11.00
2018-04-28T16:48:04.637Z,10.00
2018-04-28T16:50:31.184Z,14.23
2018-04-28T16:52:57.695Z,15.97
2018-04-28T16:55:24.925Z,12.30
2018-04-28T16:57:51.418Z,8.10
2018-04-28T17:00:17.915Z,9.80
2018-04-28T17:02:44.437Z,9.00
2018-04-28T17:05:10.943Z,12.37
2018-04-28T17:07:37.453Z,13.17
2018-04-28T17:10:05.248Z,13.53
2018-04-28T17:12:31.733Z,9.40
2018-04-28T17:14:58.224Z,11.33
2018-04-28T17:17:36.996Z,16.33
2018-04-28T17:20:03.495Z,11.47
2018-04-28T17:22:30.530Z,11.03
2018-04-28T17:24:57.067Z,10.27
2018-04-28T17:27:23.550Z,12.70
2018-04-28T17:29:50.060Z,15.27
2018-04-28T17:32:16.559Z,11.67
2018-04-28T17:34:43.560Z,14.33
2018-04-28T17:37:10.062Z,10.73
2018-04-28T17:39:37.441Z,10.63
2018-04-28T17:42:03.980Z,9.30
2018-04-28T17:44:30.490Z,12.23
2018-04-28T17:46:57.735Z,16.90
2018-04-28T17:49:24.210Z,19.60
2018-04-28T17:51:50.716Z,9.97
2018-04-28T17:54:17.940Z,18.13
2018-04-28T17:56:44.428Z,10.77
2018-04-28T17:59:11.691Z,12.27
2018-04-28T18:01:38.273Z,8.97
2018-04-28T18:04:04.825Z,14.30
2018-04-28T18:06:31.405Z,10.00
2018-04-28T18:08:58.621Z,12.90
2018-04-28T18:11:25.132Z,15.00
2018-04-28T18:13:51.618Z,14.20
2018-04-28T18:16:18.148Z,14.73
2018-04-28T18:18:44.621Z,17.43
2018-04-28T18:21:11.181Z,13.23
2018-04-28T18:23:37.649Z,14.33
2018-04-28T18:26:04.151Z,17.47
2018-04-28T18:28:30.677Z,11.33
2018-04-28T18:30:57.230Z,14.63
2018-04-28T18:33:23.748Z,13.27
2018-04-28T18:35:50.988Z,18.10
2018-04-28T18:38:17.488Z,12.40
2018-04-28T18:40:43.926Z,15.37
2018-04-28T18:43:13.034Z,17.43
2018-04-28T18:45:39.918Z,20.07
2018-04-28T18:48:07.136Z,14.57
2018-04-28T18:50:33.656Z,15.27
2018-04-28T18:53:00.174Z,13.70
2018-04-28T18:55:26.670Z,12.97
2018-04-28T18:57:53.189Z,13.87
2018-04-28T19:00:19.655Z,16.83
2018-04-28T19:02:46.882Z,14.97
2018-04-28T19:05:13.454Z,13.83
2018-04-28T19:07:40.717Z,15.17
2018-04-28T19:10:07.936Z,15.33
2018-04-28T19:12:34.403Z,11.43
2018-04-28T19:15:01.649Z,15.77
2018-04-28T19:17:28.136Z,16.33
2018-04-28T19:19:54.677Z,16.63
2018-04-28T19:22:21.231Z,14.17
2018-04-28T19:24:47.734Z,13.93
2018-04-28T19:27:14.955Z,17.80
2018-04-28T19:29:41.444Z,17.17
2018-04-28T19:32:07.914Z,15.13
2018-04-28T19:34:34.401Z,10.90
2018-04-28T19:37:01.632Z,12.60
2018-04-28T19:39:28.129Z,13.33
2018-04-28T19:41:54.590Z,12.47
2018-04-28T19:44:21.121Z,14.30
2018-04-28T19:46:47.605Z,13.97
2018-04-28T19:49:14.843Z,13.30
2018-04-28T19:51:41.356Z,14.27
2018-04-28T19:54:07.888Z,12.40
2018-04-28T19:56:34.380Z,15.50
2018-04-28T19:59:01.676Z,14.97
2018-04-28T20:01:28.147Z,12.60
2018-04-28T20:03:54.663Z,15.30
2018-04-28T20:06:21.205Z,11.77
2018-04-28T20:08:47.676Z,14.07
2018-04-28T20:11:14.201Z,12.83
2018-04-28T20:13:40.729Z,14.73
2018-04-28T20:16:07.210Z,13.47
2018-04-28T20:18:34.429Z,17.03
2018-04-28T20:21:00.928Z,15.03
2018-04-28T20:23:39.731Z,17.23
2018-04-28T20:26:06.945Z,16.60
2018-04-28T20:28:33.392Z,18.70
2018-04-28T20:31:00.630Z,13.97
2018-04-28T20:33:27.181Z,13.57
2018-04-28T20:35:54.491Z,17.17
2018-04-28T20:38:21.001Z,12.40
2018-04-28T20:40:47.475Z,13.63
2018-04-28T20:43:14.005Z,18.23
2018-04-28T20:45:40.504Z,13.70
2018-04-28T20:48:07.002Z,18.27
2018-04-28T20:50:33.505Z,11.00
2018-04-28T20:53:00.763Z,12.00
2018-04-28T20:55:27.977Z,13.57
2018-04-28T20:57:54.441Z,14.47
2018-04-28T21:00:20.942Z,12.87
2018-04-28T21:02:47.425Z,12.07
2018-04-28T21:05:14.651Z,13.30
2018-04-28T21:07:41.189Z,17.00
2018-04-28T21:10:08.408Z,15.53
2018-04-28T21:12:34.901Z,11.40
2018-04-28T21:15:01.368Z,12.73
2018-04-28T21:17:28.573Z,13.30
2018-04-28T21:19:55.073Z,15.77
2018-04-28T21:22:21.549Z,16.07
2018-04-28T21:24:48.028Z,13.07
2018-04-28T21:27:15.252Z,9.80
2018-04-28T21:29:41.735Z,13.70
2018-04-28T21:32:08.936Z,11.17
2018-04-28T21:34:35.400Z,14.23
2018-04-28T21:37:01.860Z,11.80
2018-04-28T21:39:28.341Z,20.17
2018-04-28T21:41:54.825Z,14.03
2018-04-28T21:44:22.062Z,17.90
2018-04-28T21:46:48.557Z,13.93
2018-04-28T21:49:15.073Z,12.50
2018-04-28T21:51:42.277Z,15.03
2018-04-28T21:54:08.744Z,17.80
2018-04-28T21:56:35.231Z,14.20
2018-04-28T21:59:01.707Z,14.60
2018-04-28T22:01:28.194Z,14.30
2018-04-28T22:03:54.770Z,9.70
2018-04-28T22:06:21.299Z,12.20
2018-04-28T22:08:47.769Z,10.60
2018-04-28T22:11:14.255Z,9.30
2018-04-28T22:13:40.764Z,11.50
2018-04-28T22:16:07.995Z,15.57
2018-04-28T22:18:34.551Z,12.57
2018-04-28T22:21:01.090Z,14.47
2018-04-28T22:23:27.773Z,17.10
2018-04-28T22:25:54.314Z,11.97
2018-04-28T22:28:20.890Z,11.97
2018-04-28T22:30:47.422Z,8.43
2018-04-28T22:33:13.927Z,16.13
2018-04-28T22:35:40.538Z,13.17
2018-04-28T22:38:07.807Z,13.37
2018-04-28T22:40:35.043Z,12.27
2018-04-28T22:43:01.553Z,10.43
2018-04-28T22:45:28.063Z,16.90
2018-04-28T22:47:54.570Z,16.87
2018-04-28T22:50:21.789Z,13.97
2018-04-28T22:52:48.256Z,12.80
2018-04-28T22:55:14.764Z,13.10
2018-04-28T22:57:41.247Z,13.77
2018-04-28T23:00:08.544Z,12.57
2018-04-28T23:02:35.056Z,15.10
2018-04-28T23:05:01.548Z,15.87
2018-04-28T23:07:28.050Z,15.57
2018-04-28T23:09:54.558Z,16.67
2018-04-28T23:12:21.766Z,12.13
2018-04-28T23:14:48.287Z,14.63
2018-04-28T23:17:14.755Z,14.73
2018-04-28T23:19:41.243Z,10.53
2018-04-28T23:22:07.785Z,12.97
2018-04-28T23:24:34.279Z,14.77
2018-04-28T23:27:00.787Z,12.60
2018-04-28T23:29:27.252Z,17.57
2018-04-28T23:31:53.737Z,14.37
2018-04-28T23:34:20.232Z,17.27
2018-04-28T23:36:46.751Z,12.30
2018-04-28T23:39:13.208Z,12.13
2018-04-28T23:41:39.732Z,13.67
2018-04-28T23:44:06.247Z,12.30
2018-04-28T23:46:32.759Z,15.30
2018-04-28T23:49:00.077Z,15.50
2018-04-28T23:51:26.557Z,15.07
2018-04-28T23:53:53.808Z,15.33
2018-04-28T23:56:21.038Z,11.63
2018-04-28T23:58:47.656Z,18.83
